Time;durP1;ratioP1;P1;durP2;ratioP2;P2;SDS_P1;SDS_P2;PMS_P1;PMS_P2;Temp;Humidity;BMP_temperature;BMP_pressure;BME280_temperature;BME280_humidity;BME280_pressure;Samples;Min_cycle;Max_cycle;Signal;HPM_P1;HPM_P2
2021/10/18 00:01:26;;;;;;;8.25;3.78;;;11.80;91.00;;;;;;5013001;28;20034;-71
2021/10/18 00:03:52;;;;;;;4.70;3.70;;;11.80;91.10;;;;;;5011788;28;20041;-71
2021/10/18 00:06:18;;;;;;;9.52;4.30;;;11.80;91.20;;;;;;5012445;28;20044;-70
2021/10/18 00:08:44;;;;;;;6.90;4.25;;;11.80;91.30;;;;;;5012570;28;20049;-70
2021/10/18 00:11:10;;;;;;;4.95;3.58;;;11.80;91.20;;;;;;5011324;28;20096;-70
2021/10/18 00:13:36;;;;;;;6.70;3.50;;;11.80;91.30;;;;;;5012093;28;20041;-70
2021/10/18 00:16:02;;;;;;;7.35;3.60;;;11.80;91.20;;;;;;5013442;28;20040;-70
2021/10/18 00:18:28;;;;;;;6.35;3.63;;;11.80;91.30;;;;;;5009162;28;20120;-70
2021/10/18 00:20:54;;;;;;;5.80;3.60;;;11.80;91.30;;;;;;5009824;28;20029;-70
2021/10/18 00:23:20;;;;;;;5.43;3.35;;;11.80;91.30;;;;;;5010611;28;20034;-70
2021/10/18 00:25:45;;;;;;;5.60;3.70;;;11.80;91.30;;;;;;5011521;28;20040;-70
2021/10/18 00:28:12;;;;;;;9.88;3.60;;;11.80;91.40;;;;;;5010056;28;20033;-70
2021/10/18 00:30:37;;;;;;;7.25;3.92;;;11.80;91.30;;;;;;5012685;28;20044;-70
2021/10/18 00:33:03;;;;;;;6.82;3.22;;;11.80;91.20;;;;;;5006326;28;20034;-71
2021/10/18 00:35:29;;;;;;;7.03;3.35;;;11.90;91.20;;;;;;5012564;28;20073;-70
2021/10/18 00:37:55;;;;;;;7.88;4.03;;;11.90;91.20;;;;;;5012350;28;20057;-71
2021/10/18 00:40:22;;;;;;;3.58;3.20;;;11.90;91.20;;;;;;5010588;28;20144;-71
2021/10/18 00:42:50;;;;;;;6.07;3.50;;;11.90;91.20;;;;;;5009461;28;20056;-71
2021/10/18 00:45:16;;;;;;;8.77;3.72;;;11.90;91.20;;;;;;5011771;28;20068;-70
2021/10/18 00:47:41;;;;;;;5.25;3.53;;;11.90;91.30;;;;;;5009809;28;20537;-70
2021/10/18 00:50:08;;;;;;;4.03;3.45;;;11.90;91.30;;;;;;5014304;28;20399;-70
2021/10/18 00:52:35;;;;;;;6.15;3.40;;;11.90;91.20;;;;;;5012285;28;20057;-71
2021/10/18 00:55:02;;;;;;;6.00;3.38;;;11.90;91.30;;;;;;5013259;28;20044;-71
2021/10/18 00:57:28;;;;;;;5.85;3.90;;;11.80;91.30;;;;;;5008571;28;20048;-70
2021/10/18 00:59:55;;;;;;;9.48;4.07;;;11.90;91.30;;;;;;5010508;28;20029;-70
2021/10/18 01:02:20;;;;;;;6.10;4.10;;;12.00;90.70;;;;;;5010648;28;20034;-70
2021/10/18 01:04:47;;;;;;;6.53;3.70;;;12.00;90.10;;;;;;5012232;28;20029;-71
2021/10/18 01:07:13;;;;;;;6.72;3.75;;;12.00;89.90;;;;;;5010661;28;20026;-70
2021/10/18 01:09:39;;;;;;;6.38;3.33;;;11.90;89.80;;;;;;5011040;28;20088;-70
2021/10/18 01:12:05;;;;;;;5.45;3.50;;;11.90;90.20;;;;;;5011524;28;20561;-71
2021/10/18 01:14:30;;;;;;;3.95;3.15;;;11.90;90.50;;;;;;5011967;28;20718;-70
2021/10/18 01:16:56;;;;;;;4.90;3.53;;;11.90;90.70;;;;;;5010925;28;20033;-70
2021/10/18 01:19:22;;;;;;;7.70;3.88;;;11.90;90.90;;;;;;5018981;28;20231;-70
2021/10/18 01:21:48;;;;;;;4.78;3.10;;;11.90;90.90;;;;;;5013062;28;20037;-70
2021/10/18 01:24:14;;;;;;;6.00;3.55;;;11.90;90.90;;;;;;5013803;28;20033;-70
2021/10/18 01:26:40;;;;;;;6.75;3.75;;;11.90;91.00;;;;;;5009717;28;20255;-70
2021/10/18 01:29:06;;;;;;;4.13;3.35;;;11.90;91.00;;;;;;5008672;28;20099;-70
2021/10/18 01:31:32;;;;;;;4.63;3.03;;;11.90;91.10;;;;;;5009489;28;20046;-70
2021/10/18 01:33:58;;;;;;;5.35;3.70;;;11.90;91.10;;;;;;5007851;28;20030;-70
2021/10/18 01:36:23;;;;;;;5.90;3.42;;;11.90;91.20;;;;;;5009978;28;20490;-70
2021/10/18 01:38:49;;;;;;;7.82;3.83;;;11.90;91.20;;;;;;5007766;28;20083;-69
2021/10/18 01:41:15;;;;;;;5.90;3.50;;;11.90;91.50;;;;;;5010543;28;20829;-70
2021/10/18 01:43:41;;;;;;;6.20;3.33;;;11.90;91.10;;;;;;5009862;28;20422;-70
2021/10/18 01:46:07;;;;;;;5.53;3.78;;;11.90;91.10;;;;;;5008380;28;20029;-70
2021/10/18 01:48:32;;;;;;;5.03;3.30;;;11.90;91.20;;;;;;5008402;28;20116;-70
2021/10/18 01:50:58;;;;;;;7.70;3.30;;;11.90;91.20;;;;;;5006846;28;20096;-70
2021/10/18 01:53:24;;;;;;;5.72;3.30;;;11.90;91.20;;;;;;5011476;28;20033;-70
2021/10/18 01:55:50;;;;;;;4.68;3.20;;;11.90;91.20;;;;;;5008131;28;20038;-70
2021/10/18 01:58:16;;;;;;;5.40;3.72;;;11.90;91.30;;;;;;5010839;28;20061;-70
2021/10/18 02:00:43;;;;;;;8.13;3.53;;;11.90;91.30;;;;;;5008494;28;20080;-70
2021/10/18 02:03:09;;;;;;;10.43;3.80;;;11.90;91.00;;;;;;5010896;28;20040;-70
2021/10/18 02:05:36;;;;;;;5.68;3.20;;;12.00;90.60;;;;;;5007045;28;20038;-70
2021/10/18 02:08:02;;;;;;;6.78;3.40;;;12.00;90.40;;;;;;5010339;28;20029;-70
2021/10/18 02:10:28;;;;;;;8.68;3.50;;;11.90;90.50;;;;;;5008827;28;20053;-70
2021/10/18 02:12:53;;;;;;;8.57;3.85;;;11.90;90.50;;;;;;5009350;28;20041;-70
2021/10/18 02:15:19;;;;;;;5.18;3.42;;;11.90;90.60;;;;;;5007149;28;20037;-70
2021/10/18 02:17:45;;;;;;;7.70;3.50;;;11.90;90.50;;;;;;5008313;28;20034;-70
2021/10/18 02:20:13;;;;;;;8.20;3.53;;;11.90;90.30;;;;;;5010369;28;20033;-70
2021/10/18 02:22:40;;;;;;;8.98;3.95;;;12.00;90.10;;;;;;5008059;28;20033;-70
2021/10/18 02:25:07;;;;;;;6.28;3.22;;;11.90;90.00;;;;;;5010098;28;20410;-70
2021/10/18 02:27:33;;;;;;;8.77;3.83;;;11.90;90.40;;;;;;5008492;28;20133;-70
2021/10/18 02:29:59;;;;;;;5.53;2.75;;;11.90;90.60;;;;;;5010551;28;20056;-70
2021/10/18 02:32:25;;;;;;;4.05;3.10;;;11.90;90.70;;;;;;5006618;28;20033;-70
2021/10/18 02:34:50;;;;;;;7.53;3.97;;;11.90;90.70;;;;;;5009946;28;20037;-70
2021/10/18 02:37:16;;;;;;;7.85;3.60;;;11.90;90.60;;;;;;5006754;28;20032;-70
2021/10/18 02:39:43;;;;;;;6.22;3.45;;;11.90;90.70;;;;;;5010281;28;20397;-70
2021/10/18 02:42:08;;;;;;;3.83;2.92;;;11.90;90.80;;;;;;5007412;28;20037;-70
2021/10/18 02:44:34;;;;;;;4.15;3.28;;;11.90;90.90;;;;;;5006784;28;20037;-70
2021/10/18 02:47:00;;;;;;;4.47;3.00;;;11.90;90.90;;;;;;5005862;28;20049;-70
2021/10/18 02:49:26;;;;;;;5.45;2.60;;;11.90;90.90;;;;;;5009066;28;20033;-70
2021/10/18 02:51:51;;;;;;;3.85;2.70;;;11.90;90.90;;;;;;5009097;28;20037;-70
2021/10/18 02:54:17;;;;;;;3.92;2.40;;;11.90;90.90;;;;;;5008329;28;20072;-70
2021/10/18 02:56:43;;;;;;;3.88;2.83;;;12.00;90.70;;;;;;5006755;28;20033;-70
2021/10/18 02:59:08;;;;;;;3.95;2.72;;;11.90;90.70;;;;;;5006632;28;20052;-70
2021/10/18 03:01:35;;;;;;;8.55;3.03;;;12.00;90.70;;;;;;5009970;28;20066;-70
2021/10/18 03:04:00;;;;;;;4.80;3.05;;;12.00;90.60;;;;;;5007442;28;20132;-70
2021/10/18 03:06:26;;;;;;;4.20;2.70;;;12.00;90.60;;;;;;5006396;28;20074;-70
2021/10/18 03:08:55;;;;;;;4.40;2.30;;;12.00;90.60;;;;;;5004656;28;20129;-70
2021/10/18 03:11:21;;;;;;;3.17;2.38;;;12.00;90.50;;;;;;5008103;28;20041;-70
2021/10/18 03:13:47;;;;;;;4.35;2.00;;;12.10;90.40;;;;;;5009427;28;20033;-70
2021/10/18 03:16:13;;;;;;;3.05;2.30;;;12.00;90.30;;;;;;5005911;28;20025;-70
2021/10/18 03:18:39;;;;;;;2.45;2.15;;;12.10;90.30;;;;;;5011051;28;20573;-70
2021/10/18 03:21:04;;;;;;;5.57;2.50;;;12.00;90.30;;;;;;5011966;28;20637;-69
2021/10/18 03:23:30;;;;;;;4.47;2.33;;;12.10;87.90;;;;;;5013209;28;20102;-70
2021/10/18 03:25:56;;;;;;;6.03;2.55;;;12.10;86.90;;;;;;5011558;28;20040;-70
2021/10/18 03:28:22;;;;;;;7.82;2.67;;;12.10;87.20;;;;;;5011317;28;20810;-70
2021/10/18 03:30:48;;;;;;;5.00;2.03;;;12.10;87.60;;;;;;5011244;28;20536;-70
2021/10/18 03:33:14;;;;;;;3.08;2.38;;;12.10;88.60;;;;;;5010547;28;20132;-70
2021/10/18 03:35:40;;;;;;;2.90;2.53;;;12.00;89.40;;;;;;5011294;28;20105;-70
2021/10/18 03:38:06;;;;;;;5.60;2.33;;;12.10;89.90;;;;;;5008888;28;20069;-70
2021/10/18 03:40:31;;;;;;;3.53;2.00;;;12.00;90.00;;;;;;5007534;28;20034;-70
2021/10/18 03:42:57;;;;;;;5.75;2.30;;;12.00;89.90;;;;;;5012303;28;20040;-70
2021/10/18 03:45:23;;;;;;;3.90;2.30;;;12.00;89.90;;;;;;5010240;28;20026;-70
2021/10/18 03:47:48;;;;;;;4.68;2.60;;;12.00;89.60;;;;;;5010991;28;20029;-70
2021/10/18 03:50:15;;;;;;;6.35;1.98;;;12.00;89.70;;;;;;5007195;28;20807;-70
2021/10/18 03:52:42;;;;;;;4.50;2.45;;;12.00;89.70;;;;;;5010649;28;20046;-70
2021/10/18 03:55:08;;;;;;;4.95;2.15;;;12.00;89.90;;;;;;5010490;28;20095;-70
2021/10/18 03:57:34;;;;;;;1.55;1.45;;;12.00;89.50;;;;;;5008667;28;20037;-70
2021/10/18 03:59:59;;;;;;;2.70;1.73;;;12.00;89.60;;;;;;5011801;28;20045;-70
2021/10/18 04:02:26;;;;;;;3.00;2.10;;;12.00;90.00;;;;;;5011165;28;20039;-70
2021/10/18 04:04:54;;;;;;;3.33;1.85;;;12.00;89.80;;;;;;5010238;28;20040;-70
2021/10/18 04:07:19;;;;;;;2.22;1.63;;;12.10;89.70;;;;;;5010164;28;20025;-70
2021/10/18 04:09:46;;;;;;;2.45;1.92;;;12.10;89.30;;;;;;5007784;28;20902;-70
2021/10/18 04:12:12;;;;;;;1.92;1.67;;;12.10;89.10;;;;;;5009486;28;20037;-70
2021/10/18 04:14:38;;;;;;;1.90;1.60;;;12.00;89.10;;;;;;5011250;28;20037;-70
2021/10/18 04:17:04;;;;;;;2.78;1.75;;;12.10;89.40;;;;;;5011479;28;20059;-70
2021/10/18 04:19:30;;;;;;;3.88;2.25;;;12.10;89.90;;;;;;5008292;28;20907;-70
2021/10/18 04:21:56;;;;;;;3.45;1.80;;;12.10;90.00;;;;;;5008447;28;20022;-70
2021/10/18 04:24:22;;;;;;;3.08;1.90;;;12.10;89.40;;;;;;5011877;28;20033;-70
2021/10/18 04:26:48;;;;;;;7.70;1.95;;;12.10;89.50;;;;;;5007521;28;20056;-70
2021/10/18 04:29:13;;;;;;;2.05;1.70;;;12.10;89.50;;;;;;5009321;28;20037;-70
2021/10/18 04:31:39;;;;;;;2.60;1.75;;;12.10;89.30;;;;;;5009270;28;20154;-70
2021/10/18 04:34:05;;;;;;;2.13;1.83;;;12.10;89.80;;;;;;5008883;28;20752;-70
2021/10/18 04:36:31;;;;;;;3.55;1.80;;;12.10;89.70;;;;;;5010213;28;20068;-70
2021/10/18 04:38:57;;;;;;;1.77;1.55;;;12.10;89.20;;;;;;5014310;28;20613;-70
2021/10/18 04:41:22;;;;;;;3.08;1.55;;;12.10;88.90;;;;;;5017574;28;20038;-70
2021/10/18 04:43:48;;;;;;;2.08;1.63;;;12.10;89.00;;;;;;5007513;28;20065;-70
2021/10/18 04:46:14;;;;;;;2.20;2.00;;;12.10;89.10;;;;;;5012281;28;20128;-70
2021/10/18 04:48:40;;;;;;;2.00;1.77;;;12.00;88.60;;;;;;5009140;28;20044;-70
2021/10/18 04:51:05;;;;;;;3.30;2.00;;;12.00;88.80;;;;;;5023931;28;20039;-70
2021/10/18 04:53:31;;;;;;;2.78;1.85;;;11.90;88.60;;;;;;5010501;28;20118;-70
2021/10/18 04:55:57;;;;;;;3.00;1.88;;;11.90;89.00;;;;;;5007560;28;20034;-69
2021/10/18 04:58:23;;;;;;;3.13;2.10;;;11.70;88.90;;;;;;5010073;28;20038;-70
2021/10/18 05:00:54;;;;;;;4.72;2.10;;;11.70;89.30;;;;;;5022405;28;20083;-70
2021/10/18 05:03:20;;;;;;;3.35;1.98;;;11.60;89.60;;;;;;5018050;28;20041;-70
2021/10/18 05:05:47;;;;;;;3.78;1.73;;;11.50;89.70;;;;;;5022594;28;20097;-70
2021/10/18 05:08:13;;;;;;;2.25;1.80;;;11.40;90.00;;;;;;5022549;28;20086;-69
2021/10/18 05:10:42;;;;;;;4.53;2.05;;;11.40;90.00;;;;;;5010614;28;20037;-70
2021/10/18 05:13:09;;;;;;;2.70;1.88;;;11.30;90.00;;;;;;5017754;28;20050;-70
2021/10/18 05:15:36;;;;;;;3.10;2.47;;;11.20;90.00;;;;;;5000351;28;20079;-71
2021/10/18 05:18:02;;;;;;;3.55;2.15;;;11.20;90.00;;;;;;5019000;28;20806;-71
2021/10/18 05:20:32;;;;;;;4.25;2.30;;;11.20;90.00;;;;;;5010100;28;20045;-72
2021/10/18 05:22:58;;;;;;;4.38;2.08;;;11.20;90.40;;;;;;5021108;28;20470;-71
2021/10/18 05:25:24;;;;;;;3.05;2.28;;;11.10;90.20;;;;;;5021546;28;20060;-72
2021/10/18 05:27:50;;;;;;;3.75;2.00;;;11.10;90.30;;;;;;5018972;28;20087;-72
2021/10/18 05:30:19;;;;;;;4.53;2.33;;;11.10;90.30;;;;;;5018400;28;20037;-71
2021/10/18 05:32:46;;;;;;;3.05;2.50;;;11.10;90.30;;;;;;5026786;28;20091;-72
2021/10/18 05:35:11;;;;;;;4.03;2.33;;;11.10;90.30;;;;;;5026021;28;20034;-72
2021/10/18 05:37:42;;;;;;;4.35;2.30;;;11.10;90.30;;;;;;5020343;28;20070;-72
2021/10/18 05:40:08;;;;;;;4.70;2.88;;;11.00;90.40;;;;;;5016794;28;20044;-72
2021/10/18 05:42:34;;;;;;;3.17;2.10;;;11.00;90.30;;;;;;5023963;28;20117;-71
2021/10/18 05:44:59;;;;;;;4.32;2.38;;;11.00;90.40;;;;;;5018794;28;20478;-71
2021/10/18 05:47:25;;;;;;;4.60;2.50;;;10.90;90.50;;;;;;5012175;28;20033;-71
2021/10/18 05:49:51;;;;;;;6.97;2.75;;;10.90;90.50;;;;;;5012216;28;20798;-71
2021/10/18 05:52:18;;;;;;;10.63;3.80;;;10.90;90.50;;;;;;5010594;28;20041;-73
2021/10/18 05:54:44;;;;;;;4.88;2.90;;;10.90;90.50;;;;;;5021845;28;20037;-75
2021/10/18 05:57:09;;;;;;;4.82;2.50;;;10.90;90.50;;;;;;5026392;28;20033;-74
2021/10/18 05:59:35;;;;;;;5.15;3.00;;;10.90;90.70;;;;;;5015175;28;20115;-72
2021/10/18 06:02:02;;;;;;;4.70;2.92;;;10.90;90.80;;;;;;5025598;28;21029;-72
2021/10/18 06:04:27;;;;;;;4.65;2.33;;;11.00;90.90;;;;;;5010593;28;20088;-72
2021/10/18 06:06:53;;;;;;;3.60;2.30;;;11.10;90.90;;;;;;5016765;28;20071;-72
2021/10/18 06:09:19;;;;;;;6.00;3.33;;;11.20;91.00;;;;;;5012088;28;20034;-72
2021/10/18 06:11:45;;;;;;;3.75;2.10;;;11.20;91.00;;;;;;5017036;28;20791;-72
2021/10/18 06:14:11;;;;;;;6.60;3.17;;;11.30;91.00;;;;;;5015860;28;20041;-74
2021/10/18 06:16:37;;;;;;;5.88;3.10;;;11.40;91.00;;;;;;5013683;28;20041;-71
2021/10/18 06:19:03;;;;;;;5.00;2.90;;;11.40;91.00;;;;;;5011773;28;20041;-78
2021/10/18 06:21:28;;;;;;;5.10;2.95;;;11.50;90.90;;;;;;5013184;28;20033;-73
2021/10/18 06:23:54;;;;;;;3.83;2.40;;;11.60;90.80;;;;;;5018791;28;20511;-78
2021/10/18 06:26:20;;;;;;;4.47;2.55;;;11.60;90.60;;;;;;5011089;28;20116;-74
2021/10/18 06:28:45;;;;;;;3.53;2.53;;;11.70;90.60;;;;;;5023404;28;20033;-74
2021/10/18 06:31:11;;;;;;;7.38;2.80;;;11.70;90.50;;;;;;5026259;28;20136;-70
2021/10/18 06:33:37;;;;;;;7.15;2.70;;;11.80;90.60;;;;;;5016278;28;20029;-70
2021/10/18 06:36:03;;;;;;;3.72;2.30;;;11.80;90.40;;;;;;5014673;28;20525;-70
2021/10/18 06:38:28;;;;;;;3.00;2.53;;;11.90;90.20;;;;;;5007677;28;20057;-70
2021/10/18 06:40:54;;;;;;;4.93;2.33;;;11.90;90.20;;;;;;5013518;28;20034;-70
2021/10/18 06:43:20;;;;;;;3.80;2.28;;;12.00;90.30;;;;;;5010270;28;20037;-73
2021/10/18 06:45:47;;;;;;;3.28;2.03;;;12.00;90.20;;;;;;5016960;28;20042;-70
2021/10/18 06:48:14;;;;;;;3.47;2.22;;;12.10;90.10;;;;;;5016883;28;20133;-70
2021/10/18 06:50:41;;;;;;;5.47;2.30;;;12.10;90.00;;;;;;5011281;28;20041;-73
2021/10/18 06:53:14;;;;;;;5.28;2.67;;;12.20;90.00;;;;;;5010370;28;20054;-74
2021/10/18 06:55:40;;;;;;;5.35;2.60;;;12.30;89.90;;;;;;5022375;28;20037;-73
2021/10/18 06:58:07;;;;;;;3.75;2.22;;;12.30;88.70;;;;;;5009978;28;20056;-72
2021/10/18 07:00:33;;;;;;;2.67;1.90;;;12.40;88.50;;;;;;5017326;28;20400;-73
2021/10/18 07:02:59;;;;;;;4.30;2.28;;;12.40;88.50;;;;;;5021943;28;20098;-72
2021/10/18 07:05:25;;;;;;;4.13;2.17;;;12.50;88.40;;;;;;5014267;28;20030;-72
2021/10/18 07:07:50;;;;;;;3.97;2.25;;;12.50;88.00;;;;;;5015229;28;20038;-72
2021/10/18 07:10:17;;;;;;;4.30;2.22;;;12.60;88.10;;;;;;5014857;28;20100;-71
2021/10/18 07:12:43;;;;;;;3.72;1.90;;;12.70;88.30;;;;;;5016267;28;20493;-71
2021/10/18 07:15:09;;;;;;;3.90;2.20;;;12.70;88.30;;;;;;5017013;28;20138;-71
2021/10/18 07:17:35;;;;;;;4.47;2.33;;;12.80;88.30;;;;;;5017813;28;20952;-71
2021/10/18 07:20:03;;;;;;;4.07;2.13;;;12.80;87.90;;;;;;5030359;28;20049;-71
2021/10/18 07:22:49;;;;;;;7.15;2.65;;;12.90;86.30;;;;;;5009710;28;20030;-71
2021/10/18 07:25:19;;;;;;;5.90;2.38;;;13.00;83.60;;;;;;5015999;28;20543;-71
2021/10/18 07:27:45;;;;;;;4.03;2.25;;;13.00;83.50;;;;;;5032766;28;20485;-70
2021/10/18 07:30:11;;;;;;;2.97;1.88;;;13.00;84.30;;;;;;5016616;28;20052;-71
2021/10/18 07:32:42;;;;;;;6.53;2.20;;;13.10;83.20;;;;;;5019286;28;20056;-70
2021/10/18 07:35:09;;;;;;;4.18;2.40;;;13.10;83.00;;;;;;5020080;28;20075;-70
2021/10/18 07:37:35;;;;;;;5.13;2.30;;;13.20;81.90;;;;;;5012910;28;20113;-71
2021/10/18 07:40:00;;;;;;;8.13;2.47;;;13.20;81.60;;;;;;5019066;28;20048;-71
2021/10/18 07:42:26;;;;;;;5.15;2.10;;;13.30;81.10;;;;;;5017323;28;20041;-71
2021/10/18 07:44:53;;;;;;;4.93;2.78;;;13.40;79.70;;;;;;5021657;28;20068;-71
2021/10/18 07:47:20;;;;;;;10.68;2.30;;;13.40;79.80;;;;;;5018157;28;20034;-71
2021/10/18 07:49:47;;;;;;;5.75;2.80;;;13.50;79.50;;;;;;5017519;28;20060;-71
2021/10/18 07:52:12;;;;;;;4.60;2.05;;;13.60;78.90;;;;;;5028744;28;20145;-71
2021/10/18 07:54:42;;;;;;;5.15;2.70;;;13.60;78.20;;;;;;5018799;28;20095;-71
2021/10/18 07:57:09;;;;;;;3.72;2.20;;;13.70;77.10;;;;;;5011352;28;20437;-71
2021/10/18 07:59:34;;;;;;;6.50;2.30;;;13.70;78.00;;;;;;5017552;28;20069;-71
2021/10/18 08:02:01;;;;;;;3.25;1.92;;;13.70;78.00;;;;;;5007875;28;20842;-73
2021/10/18 08:04:26;;;;;;;3.92;2.22;;;13.70;77.30;;;;;;5017204;28;20716;-70
2021/10/18 08:06:52;;;;;;;4.70;2.20;;;13.70;78.00;;;;;;5017548;28;20145;-73
2021/10/18 08:09:19;;;;;;;3.78;2.35;;;13.80;76.40;;;;;;5015230;28;20034;-71
2021/10/18 08:11:45;;;;;;;5.07;1.88;;;13.80;76.90;;;;;;5016279;28;20509;-70
2021/10/18 08:14:11;;;;;;;4.40;2.33;;;13.80;76.20;;;;;;5020247;28;20029;-70
2021/10/18 08:16:37;;;;;;;6.80;2.58;;;13.80;76.70;;;;;;5021905;28;20041;-70
2021/10/18 08:19:02;;;;;;;5.28;2.50;;;13.90;76.20;;;;;;5016683;28;20033;-70
2021/10/18 08:21:28;;;;;;;3.50;2.00;;;13.90;76.40;;;;;;5015796;28;20037;-70
2021/10/18 08:23:54;;;;;;;2.65;2.08;;;14.00;76.20;;;;;;5017400;28;20022;-70
2021/10/18 08:26:19;;;;;;;5.13;2.17;;;14.10;75.50;;;;;;5022867;28;20036;-70
2021/10/18 08:28:45;;;;;;;4.63;1.70;;;14.30;75.50;;;;;;5019376;28;20155;-70
2021/10/18 08:31:12;;;;;;;5.43;2.22;;;14.40;74.20;;;;;;5017221;28;20025;-68
2021/10/18 08:33:38;;;;;;;3.55;1.83;;;14.50;73.70;;;;;;5018439;28;20045;-70
2021/10/18 08:36:05;;;;;;;7.50;2.20;;;14.50;73.30;;;;;;5010456;28;20091;-70
2021/10/18 08:38:46;;;;;;;5.88;2.15;;;14.60;73.40;;;;;;5015592;28;20034;-70
2021/10/18 08:46:39;;;;;;;3.92;1.83;;;14.80;72.20;;;;;;5015918;28;20029;-69
2021/10/18 08:49:04;;;;;;;6.57;2.08;;;14.90;70.70;;;;;;5014257;28;20044;-70
2021/10/18 08:51:30;;;;;;;8.23;2.05;;;15.00;68.70;;;;;;5015016;28;20557;-70
2021/10/18 08:53:57;;;;;;;3.78;2.20;;;15.20;69.30;;;;;;5007796;28;20695;-70
2021/10/18 08:56:24;;;;;;;3.92;1.80;;;15.20;68.40;;;;;;5014384;28;20044;-70
2021/10/18 08:58:49;;;;;;;3.17;1.70;;;15.30;67.30;;;;;;5013097;28;20075;-70
2021/10/18 09:01:16;;;;;;;2.65;1.65;;;15.40;67.50;;;;;;5009806;28;20442;-69
2021/10/18 09:03:41;;;;;;;3.25;1.58;;;15.50;65.70;;;;;;5017507;28;20053;-69
2021/10/18 09:06:10;;;;;;;5.55;1.80;;;15.60;66.50;;;;;;5021546;28;20486;-69
2021/10/18 09:08:37;;;;;;;5.90;2.53;;;15.60;65.40;;;;;;5011565;28;20037;-69
2021/10/18 09:11:08;;;;;;;3.47;1.83;;;15.70;66.10;;;;;;5010303;28;20379;-69
2021/10/18 09:13:34;;;;;;;4.65;2.00;;;15.90;65.50;;;;;;5008933;28;20394;-69
2021/10/18 09:16:00;;;;;;;3.15;1.60;;;16.10;65.00;;;;;;5010934;28;20038;-69
2021/10/18 09:18:26;;;;;;;4.47;1.65;;;16.10;63.90;;;;;;5025148;28;20034;-69
2021/10/18 09:20:51;;;;;;;5.53;1.83;;;16.20;64.50;;;;;;5012855;28;20038;-69
2021/10/18 09:26:02;;;;;;;4.47;1.73;;;16.50;63.90;;;;;;5024661;28;20841;-70
2021/10/18 09:28:29;;;;;;;5.03;1.92;;;16.70;62.70;;;;;;5009798;28;20036;-69
2021/10/18 09:30:55;;;;;;;2.50;1.55;;;16.80;61.10;;;;;;5014010;28;20033;-69
2021/10/18 09:33:26;;;;;;;5.25;1.80;;;16.80;62.00;;;;;;5010672;28;20037;-68
2021/10/18 09:35:53;;;;;;;3.42;1.67;;;16.80;62.40;;;;;;5019871;28;20037;-69
2021/10/18 09:38:21;;;;;;;2.88;1.67;;;16.80;62.40;;;;;;5015224;28;20041;-68
2021/10/18 09:40:49;;;;;;;3.70;1.77;;;16.70;62.60;;;;;;5009010;28;20037;-68
2021/10/18 09:43:32;;;;;;;6.80;1.80;;;16.70;61.50;;;;;;5022915;28;20065;-69
2021/10/18 09:46:17;;;;;;;6.55;1.83;;;16.60;62.50;;;;;;5024840;28;20073;-69
2021/10/18 10:53:22;;;;;;;2.55;1.05;;;17.30;60.10;;;;;;5022774;28;20034;-67
2021/10/18 10:55:50;;;;;;;4.93;1.65;;;17.40;59.50;;;;;;5026229;28;20564;-67
2021/10/18 10:58:50;;;;;;;4.80;1.50;;;17.40;59.60;;;;;;5017259;28;20049;-67
2021/10/18 11:01:45;;;;;;;3.97;1.48;;;17.40;59.60;;;;;;5013503;28;20052;-67
2021/10/18 11:04:29;;;;;;;3.58;1.40;;;17.30;59.20;;;;;;5013558;28;20107;-67
2021/10/18 11:06:56;;;;;;;8.15;2.00;;;17.20;59.60;;;;;;5007562;28;20057;-73
2021/10/18 11:09:41;;;;;;;4.38;1.70;;;17.10;59.70;;;;;;5019496;28;20834;-71
2021/10/18 11:12:17;;;;;;;2.42;1.75;;;17.00;60.40;;;;;;5015039;28;20038;-72
2021/10/18 11:14:57;;;;;;;2.80;1.33;;;17.00;60.60;;;;;;5010190;28;20806;-73
2021/10/18 11:17:25;;;;;;;2.33;1.33;;;17.00;61.20;;;;;;5012007;28;20548;-72
2021/10/18 11:19:56;;;;;;;2.70;1.23;;;17.10;59.40;;;;;;5015301;28;20033;-72
2021/10/18 11:22:28;;;;;;;2.00;1.00;;;17.10;60.20;;;;;;5008909;28;20245;-71
2021/10/18 11:24:53;;;;;;;2.88;1.13;;;17.10;59.10;;;;;;5015969;28;20096;-71
2021/10/18 11:27:25;;;;;;;2.63;1.30;;;17.00;58.70;;;;;;5015921;28;20032;-71
2021/10/18 11:29:55;;;;;;;2.55;1.60;;;17.10;59.90;;;;;;5010735;28;20050;-70
2021/10/18 11:32:22;;;;;;;3.53;1.58;;;17.20;59.00;;;;;;5021546;28;20055;-72
2021/10/18 11:34:48;;;;;;;3.67;1.55;;;17.40;60.00;;;;;;5011528;28;20038;-72
2021/10/18 11:37:13;;;;;;;1.95;1.25;;;17.50;59.70;;;;;;5013044;28;20045;-76
2021/10/18 11:39:39;;;;;;;3.92;1.42;;;17.60;58.40;;;;;;5011154;28;20049;-73
2021/10/18 11:42:13;;;;;;;2.38;1.40;;;17.80;58.20;;;;;;5014694;28;20115;-73
2021/10/18 11:44:42;;;;;;;2.92;1.20;;;17.70;59.30;;;;;;5016668;28;20037;-72
2021/10/18 11:47:25;;;;;;;2.38;1.77;;;17.80;58.60;;;;;;5018316;28;20033;-72
2021/10/18 11:50:11;;;;;;;2.75;1.20;;;17.70;58.60;;;;;;5015570;28;20875;-73
2021/10/18 11:52:41;;;;;;;6.43;1.30;;;17.80;57.30;;;;;;5017821;28;20044;-72
2021/10/18 11:55:08;;;;;;;3.17;1.35;;;17.70;57.40;;;;;;5010955;28;20525;-73
2021/10/18 11:57:39;;;;;;;1.60;1.40;;;17.80;56.60;;;;;;5009889;28;20079;-72
2021/10/18 12:00:07;;;;;;;1.80;1.27;;;17.60;56.80;;;;;;5011564;28;20050;-72
2021/10/18 12:02:42;;;;;;;2.35;1.08;;;17.70;56.90;;;;;;5018060;28;20047;-72
2021/10/18 12:05:09;;;;;;;2.67;1.02;;;17.50;55.50;;;;;;5013940;28;20041;-72
2021/10/18 12:07:53;;;;;;;2.72;1.10;;;17.60;56.50;;;;;;5011153;28;20053;-73
2021/10/18 12:10:22;;;;;;;2.80;0.98;;;17.50;55.80;;;;;;5014551;28;20457;-72
2021/10/18 12:13:26;;;;;;;2.95;1.10;;;17.40;56.80;;;;;;5017974;28;20116;-72
2021/10/18 12:16:19;;;;;;;4.68;1.20;;;17.60;56.50;;;;;;5009278;28;20779;-72
2021/10/18 12:18:47;;;;;;;2.33;1.30;;;17.60;56.60;;;;;;5012697;28;20128;-72
2021/10/18 12:21:18;;;;;;;1.90;1.15;;;17.70;56.50;;;;;;5010977;28;20055;-72
2021/10/18 12:23:53;;;;;;;1.65;1.10;;;17.70;56.20;;;;;;5013589;28;20048;-72
2021/10/18 12:26:20;;;;;;;1.65;1.10;;;17.80;57.00;;;;;;5013940;28;20037;-72
2021/10/18 12:28:47;;;;;;;3.63;1.23;;;17.80;56.50;;;;;;5010211;28;20057;-72
2021/10/18 12:31:34;;;;;;;1.90;1.27;;;17.90;56.30;;;;;;5016524;28;20034;-72
2021/10/18 12:34:03;;;;;;;4.10;1.10;;;17.80;57.30;;;;;;5010869;28;20029;-72
2021/10/18 12:36:29;;;;;;;2.38;1.02;;;17.60;55.30;;;;;;5013432;28;20026;-72
2021/10/18 12:38:56;;;;;;;5.85;1.10;;;17.50;57.20;;;;;;5009572;28;20044;-72
2021/10/18 12:41:23;;;;;;;2.58;1.20;;;17.50;57.60;;;;;;5015145;28;20486;-72
2021/10/18 12:43:50;;;;;;;1.70;1.00;;;17.50;56.40;;;;;;5023515;28;20083;-72
2021/10/18 12:46:24;;;;;;;2.00;1.20;;;17.50;57.20;;;;;;5020322;28;20029;-72
2021/10/18 12:49:07;;;;;;;2.00;0.98;;;17.60;57.20;;;;;;5009445;28;20764;-72
2021/10/18 12:51:41;;;;;;;1.95;0.70;;;17.60;57.00;;;;;;5022966;28;20108;-72
2021/10/18 12:54:23;;;;;;;1.88;1.17;;;17.60;58.30;;;;;;5016232;28;20107;-72
2021/10/18 12:56:55;;;;;;;2.47;1.10;;;17.70;56.80;;;;;;5008561;28;20179;-72
2021/10/18 12:59:21;;;;;;;1.90;1.20;;;17.70;58.20;;;;;;5015810;28;20874;-72
2021/10/18 13:01:47;;;;;;;3.47;1.30;;;17.70;58.60;;;;;;5015516;28;20132;-72
2021/10/18 13:04:19;;;;;;;6.53;1.30;;;17.80;57.40;;;;;;5010830;28;20041;-73
2021/10/18 13:06:46;;;;;;;2.72;1.00;;;17.90;57.60;;;;;;5018451;28;20030;-72
2021/10/18 13:09:12;;;;;;;2.00;0.90;;;17.90;57.90;;;;;;5009243;28;20043;-72
2021/10/18 13:11:40;;;;;;;2.60;1.52;;;17.90;56.20;;;;;;5013986;28;20602;-72
2021/10/18 13:14:07;;;;;;;3.38;1.73;;;17.80;55.40;;;;;;5008463;28;20068;-72
2021/10/18 13:16:33;;;;;;;2.95;1.40;;;17.70;57.00;;;;;;5007996;28;20089;-72
2021/10/18 13:18:59;;;;;;;4.50;1.20;;;17.70;58.00;;;;;;5021805;28;20167;-72
2021/10/18 13:21:25;;;;;;;2.30;1.20;;;17.70;59.10;;;;;;5010114;28;20030;-72
2021/10/18 13:23:51;;;;;;;1.25;0.85;;;17.70;55.20;;;;;;5019196;28;20034;-72
2021/10/18 13:26:17;;;;;;;1.17;0.85;;;17.70;54.30;;;;;;5008884;28;20100;-72
2021/10/18 13:28:42;;;;;;;2.63;0.80;;;17.80;55.30;;;;;;5018386;28;20672;-72
2021/10/18 13:31:09;;;;;;;1.38;0.80;;;17.80;56.20;;;;;;5015255;28;20858;-72
2021/10/18 13:33:35;;;;;;;1.67;0.85;;;17.70;55.80;;;;;;5020684;28;20037;-72
2021/10/18 13:36:01;;;;;;;1.25;0.90;;;17.80;55.70;;;;;;5014540;28;20037;-72
2021/10/18 13:38:27;;;;;;;2.78;0.85;;;17.70;57.00;;;;;;5012430;28;20037;-72
2021/10/18 13:40:56;;;;;;;1.42;0.60;;;17.70;56.20;;;;;;5011384;28;20029;-71
2021/10/18 13:43:22;;;;;;;1.77;1.00;;;17.60;57.30;;;;;;5020642;28;20063;-72
2021/10/18 13:45:48;;;;;;;3.08;1.10;;;17.60;58.20;;;;;;5010646;28;20030;-72
2021/10/18 13:48:14;;;;;;;1.90;1.10;;;17.60;57.40;;;;;;5021318;28;20033;-72
2021/10/18 13:50:40;;;;;;;3.63;1.30;;;17.50;55.90;;;;;;5017302;28;20505;-72
2021/10/18 13:53:07;;;;;;;3.45;1.35;;;17.40;56.50;;;;;;5030081;28;20075;-72
2021/10/18 13:55:33;;;;;;;7.05;1.20;;;17.30;56.80;;;;;;5019387;28;20033;-72
2021/10/18 13:57:59;;;;;;;2.20;0.80;;;17.20;58.00;;;;;;5021157;28;20075;-72
2021/10/18 14:00:25;;;;;;;2.10;0.90;;;17.20;57.10;;;;;;5011785;28;20394;-72